Bedford, Michigan
Current Conditions -  °F | °C
As of 8:53 AM on Friday 24 Oct 2014 (Local Time) from KBTL Reporting Station
Haze Haze  
Wind Chill:   Ceiling: 2600
Heat Index:   Visibility: 6mi
Dew Point:   Wind: 3mph
Humidity: 77%   Direction: 200°SSW
Pressure: 30.07"   Gusts: NA
Location:  42.4°N, 85.23°W
Report Text: KBTL 241253Z 20003KT 6SM HZ OVC026 09/06 A3007 RMK AO2 SLP186 T00940056
Loading
Personal Weather Stations






























Interactive Weather Map
Tropical Storm Tracking
New forecast layout! Learn more

10-Day Weather Forecast

Advertisements
Track Severe Weather on mobile